sensor_id;sensor_type;location;lat;lon;timestamp;P1;durP1;ratioP1;P2;durP2;ratioP2
76094;SDS011;64821;13.710;100.604;2023-04-25T00:00:28;21.33;;;14.07;;
76094;SDS011;64821;13.710;100.604;2023-04-25T00:01:31;18.65;;;13.88;;
76094;SDS011;64821;13.710;100.604;2023-04-25T00:02:34;19.45;;;13.45;;
76094;SDS011;64821;13.710;100.604;2023-04-25T00:03:37;22.27;;;14.88;;
76094;SDS011;64821;13.710;100.604;2023-04-25T00:04:40;18.70;;;14.45;;
76094;SDS011;64821;13.710;100.604;2023-04-25T00:05:44;19.20;;;14.38;;
76094;SDS011;64821;13.710;100.604;2023-04-25T00:06:48;19.02;;;13.38;;
76094;SDS011;64821;13.710;100.604;2023-04-25T00:07:51;20.08;;;13.27;;
76094;SDS011;64821;13.710;100.604;2023-04-25T00:08:54;20.05;;;13.43;;
76094;SDS011;64821;13.710;100.604;2023-04-25T00:09:57;19.07;;;13.20;;
76094;SDS011;64821;13.710;100.604;2023-04-25T00:11:07;18.30;;;13.35;;
76094;SDS011;64821;13.710;100.604;2023-04-25T00:12:10;18.88;;;13.18;;
76094;SDS011;64821;13.710;100.604;2023-04-25T00:13:13;20.08;;;13.90;;
76094;SDS011;64821;13.710;100.604;2023-04-25T00:14:17;18.67;;;13.23;;
76094;SDS011;64821;13.710;100.604;2023-04-25T00:15:20;19.73;;;13.10;;
76094;SDS011;64821;13.710;100.604;2023-04-25T00:16:23;19.13;;;13.38;;
76094;SDS011;64821;13.710;100.604;2023-04-25T00:17:26;20.30;;;14.85;;
76094;SDS011;64821;13.710;100.604;2023-04-25T00:18:29;18.40;;;14.10;;
76094;SDS011;64821;13.710;100.604;2023-04-25T00:19:32;20.77;;;14.63;;
76094;SDS011;64821;13.710;100.604;2023-04-25T00:20:35;18.73;;;14.43;;
76094;SDS011;64821;13.710;100.604;2023-04-25T00:21:38;21.25;;;13.85;;
76094;SDS011;64821;13.710;100.604;2023-04-25T00:22:41;21.92;;;13.77;;
76094;SDS011;64821;13.710;100.604;2023-04-25T00:23:44;21.63;;;14.75;;
76094;SDS011;64821;13.710;100.604;2023-04-25T00:24:47;18.90;;;14.13;;
76094;SDS011;64821;13.710;100.604;2023-04-25T00:25:50;18.52;;;13.68;;
76094;SDS011;64821;13.710;100.604;2023-04-25T00:26:53;20.13;;;15.23;;
76094;SDS011;64821;13.710;100.604;2023-04-25T00:27:56;21.67;;;14.57;;
76094;SDS011;64821;13.710;100.604;2023-04-25T00:28:59;20.08;;;14.13;;
76094;SDS011;64821;13.710;100.604;2023-04-25T00:30:05;19.25;;;14.23;;
76094;SDS011;64821;13.710;100.604;2023-04-25T00:31:08;19.53;;;14.53;;
76094;SDS011;64821;13.710;100.604;2023-04-25T00:32:11;19.95;;;14.70;;
76094;SDS011;64821;13.710;100.604;2023-04-25T00:33:14;20.98;;;14.63;;
76094;SDS011;64821;13.710;100.604;2023-04-25T00:34:17;18.08;;;14.88;;
76094;SDS011;64821;13.710;100.604;2023-04-25T00:35:20;20.48;;;14.55;;
76094;SDS011;64821;13.710;100.604;2023-04-25T00:36:23;21.73;;;14.50;;
76094;SDS011;64821;13.710;100.604;2023-04-25T00:37:26;22.45;;;14.80;;
76094;SDS011;64821;13.710;100.604;2023-04-25T00:38:29;20.05;;;14.20;;
76094;SDS011;64821;13.710;100.604;2023-04-25T00:39:32;21.50;;;15.70;;
76094;SDS011;64821;13.710;100.604;2023-04-25T00:40:35;20.08;;;14.85;;
76094;SDS011;64821;13.710;100.604;2023-04-25T00:41:38;21.30;;;15.13;;
76094;SDS011;64821;13.710;100.604;2023-04-25T00:42:41;19.80;;;14.05;;
76094;SDS011;64821;13.710;100.604;2023-04-25T00:43:44;20.90;;;13.88;;
76094;SDS011;64821;13.710;100.604;2023-04-25T00:44:48;18.63;;;14.75;;
76094;SDS011;64821;13.710;100.604;2023-04-25T00:45:53;21.33;;;15.25;;
76094;SDS011;64821;13.710;100.604;2023-04-25T00:46:56;18.25;;;13.88;;
76094;SDS011;64821;13.710;100.604;2023-04-25T00:47:59;19.23;;;14.20;;
76094;SDS011;64821;13.710;100.604;2023-04-25T00:49:02;20.73;;;13.43;;
76094;SDS011;64821;13.710;100.604;2023-04-25T00:50:06;20.80;;;14.63;;
76094;SDS011;64821;13.710;100.604;2023-04-25T00:51:09;20.38;;;13.63;;
76094;SDS011;64821;13.710;100.604;2023-04-25T00:52:14;20.10;;;14.17;;
76094;SDS011;64821;13.710;100.604;2023-04-25T00:53:17;20.98;;;14.73;;
76094;SDS011;64821;13.710;100.604;2023-04-25T00:54:20;20.80;;;14.50;;
76094;SDS011;64821;13.710;100.604;2023-04-25T00:55:23;18.30;;;12.88;;
76094;SDS011;64821;13.710;100.604;2023-04-25T00:56:26;20.52;;;13.50;;
76094;SDS011;64821;13.710;100.604;2023-04-25T00:57:29;16.55;;;13.15;;
76094;SDS011;64821;13.710;100.604;2023-04-25T00:58:45;18.60;;;13.10;;
76094;SDS011;64821;13.710;100.604;2023-04-25T00:59:48;19.38;;;13.45;;
76094;SDS011;64821;13.710;100.604;2023-04-25T01:00:55;17.55;;;12.68;;
76094;SDS011;64821;13.710;100.604;2023-04-25T01:01:58;18.92;;;13.40;;
76094;SDS011;64821;13.710;100.604;2023-04-25T01:03:01;18.07;;;12.73;;
76094;SDS011;64821;13.710;100.604;2023-04-25T01:04:05;19.65;;;14.00;;
76094;SDS011;64821;13.710;100.604;2023-04-25T01:05:09;20.50;;;13.85;;
76094;SDS011;64821;13.710;100.604;2023-04-25T01:06:12;22.70;;;14.63;;
76094;SDS011;64821;13.710;100.604;2023-04-25T01:07:14;19.98;;;14.38;;
76094;SDS011;64821;13.710;100.604;2023-04-25T01:08:17;21.25;;;13.60;;
76094;SDS011;64821;13.710;100.604;2023-04-25T01:09:21;20.92;;;14.38;;
76094;SDS011;64821;13.710;100.604;2023-04-25T01:10:24;20.17;;;14.82;;
76094;SDS011;64821;13.710;100.604;2023-04-25T01:11:27;18.92;;;14.43;;
76094;SDS011;64821;13.710;100.604;2023-04-25T01:12:30;18.40;;;13.90;;
76094;SDS011;64821;13.710;100.604;2023-04-25T01:13:33;19.50;;;13.47;;
76094;SDS011;64821;13.710;100.604;2023-04-25T01:14:45;21.50;;;14.38;;
76094;SDS011;64821;13.710;100.604;2023-04-25T01:15:48;18.75;;;13.48;;
76094;SDS011;64821;13.710;100.604;2023-04-25T01:16:57;18.60;;;13.43;;
76094;SDS011;64821;13.710;100.604;2023-04-25T01:18:01;19.27;;;14.95;;
76094;SDS011;64821;13.710;100.604;2023-04-25T01:19:05;20.42;;;15.10;;
76094;SDS011;64821;13.710;100.604;2023-04-25T01:20:11;20.35;;;14.73;;
76094;SDS011;64821;13.710;100.604;2023-04-25T01:21:16;18.85;;;14.45;;
76094;SDS011;64821;13.710;100.604;2023-04-25T01:22:22;18.80;;;13.85;;
76094;SDS011;64821;13.710;100.604;2023-04-25T01:23:26;19.80;;;14.23;;
76094;SDS011;64821;13.710;100.604;2023-04-25T01:24:29;21.50;;;14.63;;
76094;SDS011;64821;13.710;100.604;2023-04-25T01:25:32;19.80;;;14.15;;
76094;SDS011;64821;13.710;100.604;2023-04-25T01:26:48;20.13;;;14.40;;
76094;SDS011;64821;13.710;100.604;2023-04-25T01:27:51;20.08;;;14.27;;
76094;SDS011;64821;13.710;100.604;2023-04-25T01:28:55;20.88;;;15.65;;
76094;SDS011;64821;13.710;100.604;2023-04-25T01:29:59;23.27;;;16.17;;
76094;SDS011;64821;13.710;100.604;2023-04-25T01:31:02;21.45;;;15.63;;
76094;SDS011;64821;13.710;100.604;2023-04-25T01:32:11;19.83;;;14.07;;
76094;SDS011;64821;13.710;100.604;2023-04-25T01:33:15;18.92;;;14.10;;
76094;SDS011;64821;13.710;100.604;2023-04-25T01:34:18;18.25;;;13.88;;
76094;SDS011;64821;13.710;100.604;2023-04-25T01:35:24;19.77;;;14.53;;
76094;SDS011;64821;13.710;100.604;2023-04-25T01:36:35;20.38;;;15.18;;
76094;SDS011;64821;13.710;100.604;2023-04-25T01:37:41;19.48;;;15.13;;
76094;SDS011;64821;13.710;100.604;2023-04-25T01:38:46;18.75;;;14.50;;
76094;SDS011;64821;13.710;100.604;2023-04-25T01:39:49;20.10;;;14.90;;
76094;SDS011;64821;13.710;100.604;2023-04-25T01:40:53;20.73;;;15.40;;
76094;SDS011;64821;13.710;100.604;2023-04-25T01:41:56;18.42;;;13.95;;
76094;SDS011;64821;13.710;100.604;2023-04-25T01:42:59;22.20;;;16.85;;
76094;SDS011;64821;13.710;100.604;2023-04-25T01:44:02;21.55;;;16.08;;
76094;SDS011;64821;13.710;100.604;2023-04-25T01:45:08;21.15;;;15.40;;
76094;SDS011;64821;13.710;100.604;2023-04-25T01:46:11;20.13;;;15.37;;
76094;SDS011;64821;13.710;100.604;2023-04-25T01:47:14;21.20;;;16.17;;
76094;SDS011;64821;13.710;100.604;2023-04-25T01:48:17;20.55;;;14.93;;
76094;SDS011;64821;13.710;100.604;2023-04-25T01:49:20;21.67;;;15.88;;
76094;SDS011;64821;13.710;100.604;2023-04-25T01:50:23;25.13;;;16.02;;
76094;SDS011;64821;13.710;100.604;2023-04-25T01:51:26;24.23;;;15.93;;
76094;SDS011;64821;13.710;100.604;2023-04-25T01:52:31;21.17;;;16.02;;
76094;SDS011;64821;13.710;100.604;2023-04-25T01:53:34;20.15;;;15.40;;
76094;SDS011;64821;13.710;100.604;2023-04-25T01:54:37;20.67;;;15.63;;
76094;SDS011;64821;13.710;100.604;2023-04-25T01:55:39;20.77;;;15.68;;
76094;SDS011;64821;13.710;100.604;2023-04-25T01:56:42;19.00;;;14.67;;
76094;SDS011;64821;13.710;100.604;2023-04-25T01:57:45;20.30;;;15.52;;
76094;SDS011;64821;13.710;100.604;2023-04-25T01:58:48;20.55;;;15.73;;
76094;SDS011;64821;13.710;100.604;2023-04-25T01:59:51;24.15;;;18.17;;
76094;SDS011;64821;13.710;100.604;2023-04-25T02:00:56;22.02;;;16.23;;
76094;SDS011;64821;13.710;100.604;2023-04-25T02:01:59;23.58;;;17.27;;
76094;SDS011;64821;13.710;100.604;2023-04-25T02:03:02;22.95;;;16.75;;
76094;SDS011;64821;13.710;100.604;2023-04-25T02:04:05;21.73;;;15.45;;
76094;SDS011;64821;13.710;100.604;2023-04-25T02:05:08;20.98;;;15.90;;
76094;SDS011;64821;13.710;100.604;2023-04-25T02:06:11;21.73;;;15.95;;
76094;SDS011;64821;13.710;100.604;2023-04-25T02:07:14;21.93;;;16.57;;
76094;SDS011;64821;13.710;100.604;2023-04-25T02:08:19;23.17;;;17.45;;
76094;SDS011;64821;13.710;100.604;2023-04-25T02:09:22;21.60;;;17.08;;
76094;SDS011;64821;13.710;100.604;2023-04-25T02:10:25;23.50;;;16.95;;
76094;SDS011;64821;13.710;100.604;2023-04-25T02:11:28;23.98;;;17.23;;
76094;SDS011;64821;13.710;100.604;2023-04-25T02:12:31;22.35;;;16.90;;
76094;SDS011;64821;13.710;100.604;2023-04-25T02:13:34;21.58;;;16.90;;
76094;SDS011;64821;13.710;100.604;2023-04-25T02:14:37;21.95;;;16.98;;
76094;SDS011;64821;13.710;100.604;2023-04-25T02:15:40;21.25;;;17.20;;
76094;SDS011;64821;13.710;100.604;2023-04-25T02:16:43;21.70;;;16.15;;
76094;SDS011;64821;13.710;100.604;2023-04-25T02:17:46;25.20;;;20.00;;
76094;SDS011;64821;13.710;100.604;2023-04-25T02:18:49;24.60;;;18.95;;
76094;SDS011;64821;13.710;100.604;2023-04-25T02:19:52;22.60;;;17.75;;
76094;SDS011;64821;13.710;100.604;2023-04-25T02:20:55;24.25;;;17.27;;
76094;SDS011;64821;13.710;100.604;2023-04-25T02:21:57;24.67;;;18.50;;
76094;SDS011;64821;13.710;100.604;2023-04-25T02:23:00;23.20;;;18.20;;
76094;SDS011;64821;13.710;100.604;2023-04-25T02:24:06;24.92;;;18.50;;
76094;SDS011;64821;13.710;100.604;2023-04-25T02:25:09;24.38;;;19.02;;
76094;SDS011;64821;13.710;100.604;2023-04-25T02:26:12;25.00;;;17.83;;
76094;SDS011;64821;13.710;100.604;2023-04-25T02:27:15;24.00;;;18.35;;
76094;SDS011;64821;13.710;100.604;2023-04-25T02:28:18;23.90;;;18.00;;
76094;SDS011;64821;13.710;100.604;2023-04-25T02:29:21;23.25;;;18.73;;
76094;SDS011;64821;13.710;100.604;2023-04-25T02:30:24;24.15;;;18.70;;
76094;SDS011;64821;13.710;100.604;2023-04-25T02:31:27;25.20;;;19.50;;
76094;SDS011;64821;13.710;100.604;2023-04-25T02:32:30;28.98;;;20.75;;
76094;SDS011;64821;13.710;100.604;2023-04-25T02:33:33;26.88;;;20.08;;
76094;SDS011;64821;13.710;100.604;2023-04-25T02:34:36;33.67;;;20.40;;
76094;SDS011;64821;13.710;100.604;2023-04-25T02:35:39;28.73;;;19.48;;
76094;SDS011;64821;13.710;100.604;2023-04-25T02:36:42;23.50;;;18.48;;
76094;SDS011;64821;13.710;100.604;2023-04-25T02:37:45;26.10;;;19.10;;
76094;SDS011;64821;13.710;100.604;2023-04-25T02:38:48;25.30;;;19.60;;
76094;SDS011;64821;13.710;100.604;2023-04-25T02:39:53;26.50;;;19.45;;
76094;SDS011;64821;13.710;100.604;2023-04-25T02:40:56;27.55;;;19.48;;
76094;SDS011;64821;13.710;100.604;2023-04-25T02:41:58;25.42;;;19.60;;
76094;SDS011;64821;13.710;100.604;2023-04-25T02:43:01;26.98;;;19.25;;
76094;SDS011;64821;13.710;100.604;2023-04-25T02:44:04;26.52;;;19.30;;
76094;SDS011;64821;13.710;100.604;2023-04-25T02:45:07;26.58;;;18.23;;
76094;SDS011;64821;13.710;100.604;2023-04-25T02:46:11;26.00;;;19.08;;
76094;SDS011;64821;13.710;100.604;2023-04-25T02:47:14;24.83;;;18.88;;
76094;SDS011;64821;13.710;100.604;2023-04-25T02:48:17;24.42;;;18.83;;
76094;SDS011;64821;13.710;100.604;2023-04-25T02:49:19;24.23;;;18.60;;
76094;SDS011;64821;13.710;100.604;2023-04-25T02:50:22;24.45;;;19.33;;
76094;SDS011;64821;13.710;100.604;2023-04-25T02:51:26;25.33;;;19.00;;
76094;SDS011;64821;13.710;100.604;2023-04-25T02:52:29;27.17;;;19.13;;
76094;SDS011;64821;13.710;100.604;2023-04-25T02:53:32;24.17;;;19.77;;
76094;SDS011;64821;13.710;100.604;2023-04-25T02:54:34;23.10;;;18.45;;
76094;SDS011;64821;13.710;100.604;2023-04-25T02:55:39;25.10;;;18.63;;
76094;SDS011;64821;13.710;100.604;2023-04-25T02:56:42;24.50;;;18.70;;
76094;SDS011;64821;13.710;100.604;2023-04-25T02:57:45;24.23;;;18.08;;
76094;SDS011;64821;13.710;100.604;2023-04-25T02:58:48;25.65;;;19.80;;
76094;SDS011;64821;13.710;100.604;2023-04-25T02:59:51;26.60;;;19.17;;
76094;SDS011;64821;13.710;100.604;2023-04-25T03:00:54;25.35;;;20.13;;
76094;SDS011;64821;13.710;100.604;2023-04-25T03:01:57;24.60;;;18.70;;
76094;SDS011;64821;13.710;100.604;2023-04-25T03:03:00;25.58;;;19.13;;
76094;SDS011;64821;13.710;100.604;2023-04-25T03:04:04;25.02;;;18.52;;
76094;SDS011;64821;13.710;100.604;2023-04-25T03:05:07;24.48;;;18.75;;
76094;SDS011;64821;13.710;100.604;2023-04-25T03:06:10;24.92;;;19.70;;
76094;SDS011;64821;13.710;100.604;2023-04-25T03:07:13;23.73;;;18.75;;
76094;SDS011;64821;13.710;100.604;2023-04-25T03:08:16;26.83;;;21.45;;
76094;SDS011;64821;13.710;100.604;2023-04-25T03:09:19;26.30;;;20.67;;
76094;SDS011;64821;13.710;100.604;2023-04-25T03:10:22;25.37;;;19.93;;
76094;SDS011;64821;13.710;100.604;2023-04-25T03:11:26;24.02;;;19.02;;
76094;SDS011;64821;13.710;100.604;2023-04-25T03:12:29;27.75;;;19.92;;
76094;SDS011;64821;13.710;100.604;2023-04-25T03:13:32;26.52;;;19.98;;
76094;SDS011;64821;13.710;100.604;2023-04-25T03:14:35;25.35;;;19.15;;
76094;SDS011;64821;13.710;100.604;2023-04-25T03:15:38;25.05;;;20.40;;
76094;SDS011;64821;13.710;100.604;2023-04-25T03:16:41;24.60;;;18.25;;
76094;SDS011;64821;13.710;100.604;2023-04-25T03:17:44;27.80;;;20.83;;
76094;SDS011;64821;13.710;100.604;2023-04-25T03:18:47;26.35;;;19.90;;
76094;SDS011;64821;13.710;100.604;2023-04-25T03:19:50;25.15;;;19.75;;
76094;SDS011;64821;13.710;100.604;2023-04-25T03:20:53;27.77;;;21.43;;
76094;SDS011;64821;13.710;100.604;2023-04-25T03:21:56;26.35;;;19.15;;
76094;SDS011;64821;13.710;100.604;2023-04-25T03:22:59;24.08;;;19.58;;
76094;SDS011;64821;13.710;100.604;2023-04-25T03:24:02;26.00;;;20.50;;
76094;SDS011;64821;13.710;100.604;2023-04-25T03:25:06;26.63;;;21.05;;
76094;SDS011;64821;13.710;100.604;2023-04-25T03:26:09;27.40;;;21.27;;
76094;SDS011;64821;13.710;100.604;2023-04-25T03:27:13;25.42;;;19.52;;
76094;SDS011;64821;13.710;100.604;2023-04-25T03:28:16;24.92;;;20.17;;
76094;SDS011;64821;13.710;100.604;2023-04-25T03:29:19;33.47;;;20.30;;
76094;SDS011;64821;13.710;100.604;2023-04-25T03:30:22;30.40;;;20.52;;
76094;SDS011;64821;13.710;100.604;2023-04-25T03:31:25;25.90;;;20.23;;
76094;SDS011;64821;13.710;100.604;2023-04-25T03:32:28;25.92;;;19.60;;
76094;SDS011;64821;13.710;100.604;2023-04-25T03:33:31;26.30;;;20.10;;
76094;SDS011;64821;13.710;100.604;2023-04-25T03:34:34;25.77;;;20.02;;
76094;SDS011;64821;13.710;100.604;2023-04-25T03:35:37;27.10;;;20.30;;
76094;SDS011;64821;13.710;100.604;2023-04-25T03:36:40;26.13;;;18.58;;
76094;SDS011;64821;13.710;100.604;2023-04-25T03:37:43;26.15;;;19.80;;
76094;SDS011;64821;13.710;100.604;2023-04-25T03:38:46;23.67;;;18.92;;
76094;SDS011;64821;13.710;100.604;2023-04-25T03:39:49;24.70;;;20.20;;
76094;SDS011;64821;13.710;100.604;2023-04-25T03:40:52;26.30;;;19.90;;
76094;SDS011;64821;13.710;100.604;2023-04-25T03:41:55;28.13;;;20.60;;
76094;SDS011;64821;13.710;100.604;2023-04-25T03:42:59;25.75;;;18.23;;
76094;SDS011;64821;13.710;100.604;2023-04-25T03:44:02;26.73;;;19.73;;
76094;SDS011;64821;13.710;100.604;2023-04-25T03:45:06;28.27;;;20.67;;
76094;SDS011;64821;13.710;100.604;2023-04-25T03:46:09;24.23;;;19.38;;
76094;SDS011;64821;13.710;100.604;2023-04-25T03:47:13;27.90;;;20.70;;
76094;SDS011;64821;13.710;100.604;2023-04-25T03:48:16;27.48;;;21.75;;
76094;SDS011;64821;13.710;100.604;2023-04-25T03:49:19;26.92;;;20.48;;
76094;SDS011;64821;13.710;100.604;2023-04-25T03:50:22;24.48;;;18.95;;
76094;SDS011;64821;13.710;100.604;2023-04-25T03:51:25;24.92;;;18.70;;
76094;SDS011;64821;13.710;100.604;2023-04-25T03:52:28;27.13;;;20.37;;
76094;SDS011;64821;13.710;100.604;2023-04-25T03:53:31;23.80;;;20.02;;
76094;SDS011;64821;13.710;100.604;2023-04-25T03:54:33;29.45;;;21.75;;
76094;SDS011;64821;13.710;100.604;2023-04-25T03:55:36;26.33;;;20.50;;
76094;SDS011;64821;13.710;100.604;2023-04-25T03:56:41;25.48;;;21.02;;
76094;SDS011;64821;13.710;100.604;2023-04-25T03:57:44;28.17;;;21.45;;
76094;SDS011;64821;13.710;100.604;2023-04-25T03:58:48;30.08;;;21.25;;
76094;SDS011;64821;13.710;100.604;2023-04-25T03:59:51;28.60;;;21.88;;
76094;SDS011;64821;13.710;100.604;2023-04-25T04:00:54;27.50;;;21.17;;
76094;SDS011;64821;13.710;100.604;2023-04-25T04:01:57;28.80;;;21.30;;
76094;SDS011;64821;13.710;100.604;2023-04-25T04:03:00;29.07;;;20.50;;
76094;SDS011;64821;13.710;100.604;2023-04-25T04:04:03;36.05;;;20.80;;
76094;SDS011;64821;13.710;100.604;2023-04-25T04:05:07;34.08;;;21.77;;
76094;SDS011;64821;13.710;100.604;2023-04-25T04:06:10;27.73;;;20.73;;
76094;SDS011;64821;13.710;100.604;2023-04-25T04:07:13;24.95;;;19.92;;
76094;SDS011;64821;13.710;100.604;2023-04-25T04:08:16;28.20;;;21.42;;
76094;SDS011;64821;13.710;100.604;2023-04-25T04:09:19;27.08;;;20.95;;
76094;SDS011;64821;13.710;100.604;2023-04-25T04:10:22;25.70;;;20.13;;
76094;SDS011;64821;13.710;100.604;2023-04-25T04:11:25;28.33;;;22.60;;
76094;SDS011;64821;13.710;100.604;2023-04-25T04:12:28;25.98;;;20.75;;
76094;SDS011;64821;13.710;100.604;2023-04-25T04:13:31;30.33;;;21.70;;
76094;SDS011;64821;13.710;100.604;2023-04-25T04:14:35;25.90;;;19.77;;
76094;SDS011;64821;13.710;100.604;2023-04-25T04:15:38;27.27;;;20.17;;
76094;SDS011;64821;13.710;100.604;2023-04-25T04:16:41;28.95;;;20.38;;
76094;SDS011;64821;13.710;100.604;2023-04-25T04:17:44;27.58;;;20.20;;
76094;SDS011;64821;13.710;100.604;2023-04-25T04:18:47;25.95;;;19.30;;
76094;SDS011;64821;13.710;100.604;2023-04-25T04:19:50;23.83;;;19.40;;
76094;SDS011;64821;13.710;100.604;2023-04-25T04:20:53;26.75;;;20.27;;
76094;SDS011;64821;13.710;100.604;2023-04-25T04:21:56;25.60;;;19.45;;
76094;SDS011;64821;13.710;100.604;2023-04-25T04:22:59;26.70;;;20.13;;
76094;SDS011;64821;13.710;100.604;2023-04-25T04:24:02;25.60;;;19.67;;
76094;SDS011;64821;13.710;100.604;2023-04-25T04:25:05;24.85;;;18.90;;
76094;SDS011;64821;13.710;100.604;2023-04-25T04:26:09;25.60;;;19.42;;
76094;SDS011;64821;13.710;100.604;2023-04-25T04:27:12;25.90;;;19.45;;
76094;SDS011;64821;13.710;100.604;2023-04-25T04:28:15;24.25;;;18.10;;
76094;SDS011;64821;13.710;100.604;2023-04-25T04:29:18;26.15;;;20.38;;
76094;SDS011;64821;13.710;100.604;2023-04-25T04:30:23;25.48;;;21.33;;
76094;SDS011;64821;13.710;100.604;2023-04-25T04:31:26;26.67;;;20.63;;
76094;SDS011;64821;13.710;100.604;2023-04-25T04:32:29;23.80;;;19.08;;
76094;SDS011;64821;13.710;100.604;2023-04-25T04:33:32;26.85;;;20.48;;
76094;SDS011;64821;13.710;100.604;2023-04-25T04:34:35;25.60;;;20.50;;
76094;SDS011;64821;13.710;100.604;2023-04-25T04:35:38;25.58;;;20.42;;
76094;SDS011;64821;13.710;100.604;2023-04-25T04:36:41;29.17;;;22.13;;
76094;SDS011;64821;13.710;100.604;2023-04-25T04:37:44;28.13;;;20.80;;
76094;SDS011;64821;13.710;100.604;2023-04-25T04:38:47;26.75;;;19.52;;
76094;SDS011;64821;13.710;100.604;2023-04-25T04:39:50;25.90;;;20.35;;
76094;SDS011;64821;13.710;100.604;2023-04-25T04:40:53;26.98;;;20.95;;
76094;SDS011;64821;13.710;100.604;2023-04-25T04:41:56;26.60;;;20.85;;
76094;SDS011;64821;13.710;100.604;2023-04-25T04:42:59;26.13;;;19.30;;
76094;SDS011;64821;13.710;100.604;2023-04-25T04:44:02;26.80;;;18.65;;
76094;SDS011;64821;13.710;100.604;2023-04-25T04:45:06;23.53;;;17.90;;
76094;SDS011;64821;13.710;100.604;2023-04-25T04:46:11;22.17;;;17.02;;
76094;SDS011;64821;13.710;100.604;2023-04-25T04:47:14;25.27;;;18.10;;
76094;SDS011;64821;13.710;100.604;2023-04-25T04:48:17;26.50;;;19.15;;
76094;SDS011;64821;13.710;100.604;2023-04-25T04:49:20;25.50;;;19.85;;
76094;SDS011;64821;13.710;100.604;2023-04-25T04:50:23;26.30;;;20.42;;
76094;SDS011;64821;13.710;100.604;2023-04-25T04:51:27;25.65;;;19.45;;
76094;SDS011;64821;13.710;100.604;2023-04-25T04:52:31;24.27;;;18.08;;
76094;SDS011;64821;13.710;100.604;2023-04-25T04:53:34;26.00;;;19.15;;
76094;SDS011;64821;13.710;100.604;2023-04-25T04:54:37;22.80;;;17.90;;
76094;SDS011;64821;13.710;100.604;2023-04-25T04:55:40;25.10;;;19.13;;
76094;SDS011;64821;13.710;100.604;2023-04-25T04:56:43;25.05;;;18.48;;
76094;SDS011;64821;13.710;100.604;2023-04-25T04:57:46;26.63;;;19.88;;
76094;SDS011;64821;13.710;100.604;2023-04-25T04:58:49;22.85;;;18.30;;
76094;SDS011;64821;13.710;100.604;2023-04-25T04:59:52;24.15;;;17.95;;
76094;SDS011;64821;13.710;100.604;2023-04-25T05:00:55;23.70;;;18.77;;
76094;SDS011;64821;13.710;100.604;2023-04-25T05:02:00;26.05;;;20.17;;
76094;SDS011;64821;13.710;100.604;2023-04-25T05:03:03;25.95;;;20.52;;
76094;SDS011;64821;13.710;100.604;2023-04-25T05:04:06;28.95;;;21.92;;
76094;SDS011;64821;13.710;100.604;2023-04-25T05:05:10;25.00;;;19.85;;
76094;SDS011;64821;13.710;100.604;2023-04-25T05:06:13;25.80;;;19.70;;
76094;SDS011;64821;13.710;100.604;2023-04-25T05:07:16;27.58;;;22.48;;
76094;SDS011;64821;13.710;100.604;2023-04-25T05:08:19;26.23;;;21.95;;
76094;SDS011;64821;13.710;100.604;2023-04-25T05:09:22;28.60;;;21.63;;
76094;SDS011;64821;13.710;100.604;2023-04-25T05:10:26;24.33;;;20.33;;
76094;SDS011;64821;13.710;100.604;2023-04-25T05:11:29;25.42;;;20.85;;
76094;SDS011;64821;13.710;100.604;2023-04-25T05:12:32;27.77;;;21.17;;
76094;SDS011;64821;13.710;100.604;2023-04-25T05:13:38;25.27;;;21.63;;
76094;SDS011;64821;13.710;100.604;2023-04-25T05:14:41;28.92;;;20.77;;
76094;SDS011;64821;13.710;100.604;2023-04-25T05:15:44;27.20;;;20.92;;
76094;SDS011;64821;13.710;100.604;2023-04-25T05:16:47;27.60;;;21.33;;
76094;SDS011;64821;13.710;100.604;2023-04-25T05:17:52;26.42;;;19.48;;
76094;SDS011;64821;13.710;100.604;2023-04-25T05:18:56;25.98;;;20.50;;
76094;SDS011;64821;13.710;100.604;2023-04-25T05:19:58;27.95;;;21.48;;
76094;SDS011;64821;13.710;100.604;2023-04-25T05:21:02;28.02;;;21.63;;
76094;SDS011;64821;13.710;100.604;2023-04-25T05:22:05;27.70;;;21.17;;
76094;SDS011;64821;13.710;100.604;2023-04-25T05:23:08;28.55;;;21.90;;
76094;SDS011;64821;13.710;100.604;2023-04-25T05:24:11;29.08;;;22.20;;
76094;SDS011;64821;13.710;100.604;2023-04-25T05:25:14;27.83;;;21.75;;
76094;SDS011;64821;13.710;100.604;2023-04-25T05:26:17;27.48;;;21.33;;
76094;SDS011;64821;13.710;100.604;2023-04-25T05:27:20;31.17;;;24.07;;
76094;SDS011;64821;13.710;100.604;2023-04-25T05:28:23;27.52;;;23.20;;
76094;SDS011;64821;13.710;100.604;2023-04-25T05:29:26;30.08;;;23.23;;
76094;SDS011;64821;13.710;100.604;2023-04-25T05:30:29;27.02;;;21.42;;
76094;SDS011;64821;13.710;100.604;2023-04-25T05:31:32;26.83;;;22.33;;
76094;SDS011;64821;13.710;100.604;2023-04-25T05:32:35;24.70;;;20.27;;
76094;SDS011;64821;13.710;100.604;2023-04-25T05:33:40;25.83;;;20.23;;
76094;SDS011;64821;13.710;100.604;2023-04-25T05:34:43;25.30;;;19.90;;
76094;SDS011;64821;13.710;100.604;2023-04-25T05:35:46;25.38;;;19.30;;
76094;SDS011;64821;13.710;100.604;2023-04-25T05:36:49;27.45;;;21.25;;
76094;SDS011;64821;13.710;100.604;2023-04-25T05:37:52;24.47;;;20.87;;
76094;SDS011;64821;13.710;100.604;2023-04-25T05:38:55;26.88;;;20.60;;
76094;SDS011;64821;13.710;100.604;2023-04-25T05:39:58;24.63;;;19.17;;
76094;SDS011;64821;13.710;100.604;2023-04-25T05:41:01;23.08;;;19.40;;
76094;SDS011;64821;13.710;100.604;2023-04-25T05:42:04;24.88;;;19.73;;
76094;SDS011;64821;13.710;100.604;2023-04-25T05:43:07;27.33;;;21.25;;
76094;SDS011;64821;13.710;100.604;2023-04-25T05:44:10;26.90;;;21.40;;
76094;SDS011;64821;13.710;100.604;2023-04-25T05:45:13;25.67;;;20.42;;
76094;SDS011;64821;13.710;100.604;2023-04-25T05:46:16;26.05;;;20.50;;
76094;SDS011;64821;13.710;100.604;2023-04-25T05:47:19;24.88;;;19.60;;
76094;SDS011;64821;13.710;100.604;2023-04-25T05:48:25;25.70;;;20.03;;
76094;SDS011;64821;13.710;100.604;2023-04-25T05:49:29;25.02;;;19.73;;
76094;SDS011;64821;13.710;100.604;2023-04-25T05:50:32;25.05;;;18.15;;
76094;SDS011;64821;13.710;100.604;2023-04-25T05:51:35;23.35;;;18.67;;
76094;SDS011;64821;13.710;100.604;2023-04-25T05:52:38;24.77;;;18.30;;
76094;SDS011;64821;13.710;100.604;2023-04-25T05:53:42;25.23;;;19.77;;
76094;SDS011;64821;13.710;100.604;2023-04-25T05:54:45;27.35;;;18.50;;
76094;SDS011;64821;13.710;100.604;2023-04-25T05:55:48;27.15;;;19.10;;
76094;SDS011;64821;13.710;100.604;2023-04-25T05:56:51;23.45;;;17.83;;
76094;SDS011;64821;13.710;100.604;2023-04-25T05:57:53;23.75;;;18.85;;
76094;SDS011;64821;13.710;100.604;2023-04-25T05:58:56;21.10;;;17.70;;
76094;SDS011;64821;13.710;100.604;2023-04-25T05:59:59;23.35;;;18.00;;